createdAt,value
2018-02-01T00:01:09.077Z,98501.39
2018-02-01T00:03:36.536Z,98499.80
2018-02-01T00:06:04.012Z,98507.47
2018-02-01T00:08:31.455Z,98491.78
2018-02-01T00:10:58.919Z,98483.91
2018-02-01T00:13:26.359Z,98496.47
2018-02-01T00:15:53.836Z,98486.19
2018-02-01T00:18:21.269Z,98485.89
2018-02-01T00:20:48.722Z,98481.02
2018-02-01T00:23:16.186Z,98480.80
2018-02-01T00:25:43.643Z,98474.32
2018-02-01T00:28:11.165Z,98479.40
2018-02-01T00:30:38.641Z,98475.16
2018-02-01T00:33:06.173Z,98473.44
2018-02-01T00:35:33.634Z,98480.41
2018-02-01T00:38:01.096Z,98475.16
2018-02-01T00:40:28.539Z,98470.70
2018-02-01T00:42:56.076Z,98470.31
2018-02-01T00:45:23.521Z,98474.05
2018-02-01T00:47:50.965Z,98470.64
2018-02-01T00:50:18.492Z,98473.07
2018-02-01T00:52:46.003Z,98472.91
2018-02-01T00:55:13.476Z,98464.67
2018-02-01T00:57:40.911Z,98464.64
2018-02-01T01:00:08.402Z,98465.33
2018-02-01T01:02:35.955Z,98467.72
2018-02-01T01:05:03.411Z,98460.63
2018-02-01T01:07:30.884Z,98464.50
2018-02-01T01:09:58.565Z,98462.36
2018-02-01T01:12:26.141Z,98462.02
2018-02-01T01:14:53.626Z,98468.45
2018-02-01T01:17:21.100Z,98463.02
2018-02-01T01:19:48.552Z,98467.20
2018-02-01T01:22:15.993Z,98466.75
2018-02-01T01:24:43.456Z,98463.97
2018-02-01T01:27:10.896Z,98471.42
2018-02-01T01:29:38.345Z,98464.75
2018-02-01T01:32:05.777Z,98468.39
2018-02-01T01:34:33.237Z,98468.11
2018-02-01T01:37:00.672Z,98478.39
2018-02-01T01:39:28.132Z,98471.49
2018-02-01T01:41:55.582Z,98472.27
2018-02-01T01:44:23.056Z,98477.50
2018-02-01T01:46:50.530Z,98476.42
2018-02-01T01:49:17.988Z,98473.02
2018-02-01T01:51:45.517Z,98477.80
2018-02-01T01:54:13.046Z,98472.36
2018-02-01T01:56:40.501Z,98469.01
2018-02-01T01:59:07.956Z,98468.29
2018-02-01T02:01:35.431Z,98468.19
2018-02-01T02:04:02.901Z,98469.87
2018-02-01T02:06:30.422Z,98469.13
2018-02-01T02:08:57.879Z,98465.94
2018-02-01T02:11:25.353Z,98464.83
2018-02-01T02:13:52.795Z,98456.83
2018-02-01T02:16:20.258Z,98454.39
2018-02-01T02:18:47.849Z,98457.70
2018-02-01T02:21:15.293Z,98452.83
2018-02-01T02:23:42.791Z,98458.42
2018-02-01T02:26:10.249Z,98454.88
2018-02-01T02:28:37.710Z,98451.20
2018-02-01T02:31:05.180Z,98447.91
2018-02-01T02:33:32.658Z,98450.66
2018-02-01T02:36:00.121Z,98442.71
2018-02-01T02:38:27.581Z,98444.20
2018-02-01T02:40:55.036Z,98446.34
2018-02-01T02:43:22.482Z,98445.17
2018-02-01T02:45:49.928Z,98434.60
2018-02-01T02:48:17.371Z,98435.38
2018-02-01T02:50:44.842Z,98430.08
2018-02-01T02:53:12.338Z,98435.14
2018-02-01T02:55:39.805Z,98435.84
2018-02-01T02:58:07.246Z,98429.42
2018-02-01T03:00:34.737Z,98427.70
2018-02-01T03:03:02.228Z,98425.78
2018-02-01T03:05:29.674Z,98427.86
2018-02-01T03:07:57.131Z,98422.11
2018-02-01T03:10:24.625Z,98421.95
2018-02-01T03:12:52.073Z,98426.34
2018-02-01T03:15:19.519Z,98423.28
2018-02-01T03:17:47.006Z,98421.95
2018-02-01T03:20:14.528Z,98416.62
2018-02-01T03:22:41.975Z,98421.42
2018-02-01T03:25:09.469Z,98431.39
2018-02-01T03:27:36.928Z,98447.10
2018-02-01T03:30:04.394Z,98439.39
2018-02-01T03:32:31.843Z,98452.27
2018-02-01T03:34:59.341Z,98451.97
2018-02-01T03:37:26.793Z,98457.83
2018-02-01T03:39:54.267Z,98455.53
2018-02-01T03:42:21.720Z,98461.81
2018-02-01T03:44:50.866Z,98457.83
2018-02-01T03:47:18.341Z,98451.63
2018-02-01T03:49:45.776Z,98459.39
2018-02-01T03:52:13.259Z,98461.02
2018-02-01T03:54:40.736Z,98464.92
2018-02-01T03:57:08.210Z,98476.77
2018-02-01T03:59:35.663Z,98477.13
2018-02-01T04:02:03.122Z,98475.48
2018-02-01T04:04:30.573Z,98483.42
2018-02-01T04:06:58.050Z,98484.28
2018-02-01T04:09:25.489Z,98485.02
2018-02-01T04:11:52.937Z,98487.70
2018-02-01T04:14:20.535Z,98487.59
2018-02-01T04:16:47.979Z,98486.97
2018-02-01T04:19:15.441Z,98495.48
2018-02-01T04:21:42.932Z,98494.08
2018-02-01T04:24:10.400Z,98488.64
2018-02-01T04:26:37.905Z,98492.50
2018-02-01T04:29:05.366Z,98500.91
2018-02-01T04:31:32.828Z,98499.03
2018-02-01T04:34:00.276Z,98505.28
2018-02-01T04:36:27.749Z,98507.78
2018-02-01T04:38:55.200Z,98508.05
2018-02-01T04:41:22.657Z,98502.86
2018-02-01T04:43:50.119Z,98507.75
2018-02-01T04:46:17.565Z,98509.89
2018-02-01T04:48:45.042Z,98504.62
2018-02-01T04:51:12.488Z,98516.02
2018-02-01T04:53:39.961Z,98515.63
2018-02-01T04:56:07.448Z,98517.44
2018-02-01T04:58:34.902Z,98528.61
2018-02-01T05:01:02.372Z,98526.02
2018-02-01T05:03:29.851Z,98527.17
2018-02-01T05:05:57.302Z,98532.00
2018-02-01T05:08:24.754Z,98537.59
2018-02-01T05:10:52.218Z,98542.91
2018-02-01T05:13:19.683Z,98545.75
2018-02-01T05:15:47.127Z,98549.55
2018-02-01T05:18:14.599Z,98540.41
2018-02-01T05:20:42.041Z,98554.05
2018-02-01T05:23:09.515Z,98557.03
2018-02-01T05:25:36.970Z,98555.59
2018-02-01T05:28:04.597Z,98568.95
2018-02-01T05:30:32.073Z,98570.31
2018-02-01T05:32:59.522Z,98573.41
2018-02-01T05:35:26.982Z,98580.91
2018-02-01T05:37:54.451Z,98577.14
2018-02-01T05:40:21.919Z,98590.20
2018-02-01T05:42:49.369Z,98596.64
2018-02-01T05:45:16.872Z,98606.36
2018-02-01T05:47:44.321Z,98608.58
2018-02-01T05:50:12.448Z,98612.30
2018-02-01T05:52:39.905Z,98610.50
2018-02-01T05:55:07.432Z,98608.89
2018-02-01T05:57:34.894Z,98606.09
2018-02-01T06:00:02.364Z,98605.73
2018-02-01T06:02:29.858Z,98601.47
2018-02-01T06:04:57.347Z,98608.64
2018-02-01T06:07:24.796Z,98602.16
2018-02-01T06:09:52.250Z,98606.87
2018-02-01T06:12:19.709Z,98600.67
2018-02-01T06:14:47.158Z,98597.22
2018-02-01T06:17:14.610Z,98598.59
2018-02-01T06:19:42.094Z,98593.67
2018-02-01T06:22:09.553Z,98594.42
2018-02-01T06:24:37.020Z,98602.45
2018-02-01T06:27:04.462Z,98603.94
2018-02-01T06:29:31.931Z,98607.17
2018-02-01T06:31:59.368Z,98608.48
2018-02-01T06:34:26.813Z,98596.57
2018-02-01T06:36:54.302Z,98603.85
2018-02-01T06:39:21.740Z,98606.53
2018-02-01T06:41:49.199Z,98614.98
2018-02-01T06:44:16.641Z,98609.55
2018-02-01T06:46:44.091Z,98619.38
2018-02-01T06:49:11.557Z,98636.73
2018-02-01T06:51:39.064Z,98642.82
2018-02-01T06:54:06.523Z,98640.80
2018-02-01T06:56:33.993Z,98649.70
2018-02-01T06:59:01.432Z,98650.20
2018-02-01T07:01:29.335Z,98657.11
2018-02-01T07:03:56.796Z,98659.87
2018-02-01T07:06:24.275Z,98657.61
2018-02-01T07:08:51.737Z,98666.23
2018-02-01T07:11:19.189Z,98666.89
2018-02-01T07:13:46.660Z,98673.91
2018-02-01T07:16:14.114Z,98680.76
2018-02-01T07:18:41.554Z,98684.48
2018-02-01T07:21:09.038Z,98681.98
2018-02-01T07:23:37.392Z,98676.92
2018-02-01T07:26:04.855Z,98672.92
2018-02-01T07:28:32.312Z,98671.61
2018-02-01T07:30:59.768Z,98674.77
2018-02-01T07:33:27.227Z,98671.70
2018-02-01T07:35:54.689Z,98670.33
2018-02-01T07:38:22.132Z,98673.56
2018-02-01T07:40:49.604Z,98675.77
2018-02-01T07:43:17.047Z,98682.84
2018-02-01T07:46:00.301Z,98674.41
2018-02-01T07:48:27.744Z,98676.98
2018-02-01T07:50:55.186Z,98673.08
2018-02-01T07:53:22.666Z,98679.97
2018-02-01T07:55:50.102Z,98682.52
2018-02-01T07:58:17.589Z,98677.09
2018-02-01T08:00:45.111Z,98684.41
2018-02-01T08:03:12.587Z,98684.72
2018-02-01T08:05:40.036Z,98696.34
2018-02-01T08:08:07.525Z,98691.50
2018-02-01T08:10:34.983Z,98686.05
2018-02-01T08:13:02.451Z,98682.81
2018-02-01T08:15:29.912Z,98692.56
2018-02-01T08:17:57.381Z,98692.53
2018-02-01T08:20:24.825Z,98691.27
2018-02-01T08:22:52.268Z,98692.97
2018-02-01T08:25:19.829Z,98694.00
2018-02-01T08:27:47.292Z,98700.91
2018-02-01T08:30:14.758Z,98699.83
2018-02-01T08:32:42.212Z,98695.72
2018-02-01T08:35:09.664Z,98694.95
2018-02-01T08:37:37.177Z,98698.83
2018-02-01T08:40:04.643Z,98709.18
2018-02-01T08:42:32.085Z,98702.91
2018-02-01T08:44:59.541Z,98704.61
2018-02-01T08:47:26.991Z,98704.84
2018-02-01T08:49:54.473Z,98703.67
2018-02-01T08:52:21.912Z,98690.53
2018-02-01T08:54:49.360Z,98695.20
2018-02-01T08:57:16.820Z,98692.59
2018-02-01T08:59:44.252Z,98702.60
2018-02-01T09:02:11.703Z,98701.61
2018-02-01T09:04:39.154Z,98712.67
2018-02-01T09:07:06.610Z,98707.00
2018-02-01T09:09:34.102Z,98709.89
2018-02-01T09:12:01.564Z,98706.03
2018-02-01T09:14:29.045Z,98710.84
2018-02-01T09:16:56.581Z,98713.71
2018-02-01T09:19:24.083Z,98719.75
2018-02-01T09:21:51.594Z,98723.68
2018-02-01T09:24:19.119Z,98718.84
2018-02-01T09:26:46.704Z,98714.63
2018-02-01T09:29:14.174Z,98711.48
2018-02-01T09:31:41.658Z,98715.81
2018-02-01T09:34:09.109Z,98716.11
2018-02-01T09:36:36.640Z,98713.30
2018-02-01T09:39:04.116Z,98717.08
2018-02-01T09:41:31.568Z,98716.16
2018-02-01T09:43:59.068Z,98718.03
2018-02-01T09:46:26.554Z,98715.02
2018-02-01T09:48:54.036Z,98715.87
2018-02-01T09:51:21.589Z,98717.44
2018-02-01T09:53:49.041Z,98718.88
2018-02-01T09:56:16.557Z,98721.77
2018-02-01T09:58:44.014Z,98727.34
2018-02-01T10:01:11.463Z,98730.80
2018-02-01T10:03:38.951Z,98743.14
2018-02-01T10:06:06.407Z,98734.61
2018-02-01T10:08:33.845Z,98737.92
2018-02-01T10:11:01.319Z,98736.14
2018-02-01T10:13:28.823Z,98734.59
2018-02-01T10:15:56.276Z,98744.09
2018-02-01T10:18:23.782Z,98737.41
2018-02-01T10:20:51.224Z,98734.64
2018-02-01T10:23:18.693Z,98725.64
2018-02-01T10:25:46.138Z,98720.66
2018-02-01T10:28:13.611Z,98717.36
2018-02-01T10:30:41.117Z,98715.47
2018-02-01T10:33:08.597Z,98707.59
2018-02-01T10:35:36.059Z,98699.47
2018-02-01T10:38:03.550Z,98708.82
2018-02-01T10:40:31.017Z,98703.24
2018-02-01T10:42:58.531Z,98705.23
2018-02-01T10:45:26.005Z,98705.29
2018-02-01T10:47:53.533Z,98707.45
2018-02-01T10:50:21.021Z,98712.44
2018-02-01T10:52:48.485Z,98715.91
2018-02-01T10:55:15.965Z,98723.92
2018-02-01T10:57:43.438Z,98717.77
2018-02-01T11:00:10.930Z,98729.08
2018-02-01T11:02:38.381Z,98730.51
2018-02-01T11:05:05.835Z,98740.22
2018-02-01T11:07:33.317Z,98736.65
2018-02-01T11:10:01.081Z,98736.30
2018-02-01T11:12:28.569Z,98731.91
2018-02-01T11:14:56.069Z,98729.73
2018-02-01T11:17:23.526Z,98724.31
2018-02-01T11:19:51.014Z,98718.39
2018-02-01T11:22:18.462Z,98721.16
2018-02-01T11:24:45.960Z,98724.31
2018-02-01T11:27:13.417Z,98714.69
2018-02-01T11:29:40.862Z,98709.69
2018-02-01T11:32:08.356Z,98703.89
2018-02-01T11:34:35.864Z,98702.81
2018-02-01T11:37:03.318Z,98701.00
2018-02-01T11:39:30.781Z,98696.70
2018-02-01T11:41:58.268Z,98698.97
2018-02-01T11:44:25.718Z,98705.17
2018-02-01T11:46:53.190Z,98703.03
2018-02-01T11:49:20.654Z,98709.14
2018-02-01T11:51:48.112Z,98702.08
2018-02-01T11:54:15.636Z,98707.92
2018-02-01T11:56:43.068Z,98712.23
2018-02-01T11:59:10.534Z,98716.23
2018-02-01T12:01:37.971Z,98715.27
2018-02-01T12:04:05.429Z,98714.20
2018-02-01T12:06:32.900Z,98712.88
2018-02-01T12:09:00.362Z,98712.34
2018-02-01T12:11:27.812Z,98719.78
2018-02-01T12:13:55.264Z,98714.77
2018-02-01T12:16:22.725Z,98716.84
2018-02-01T12:18:50.189Z,98705.55
2018-02-01T12:21:17.659Z,98703.69
2018-02-01T12:23:45.105Z,98707.58
2018-02-01T12:26:12.542Z,98692.89
2018-02-01T12:28:39.997Z,98700.42
2018-02-01T12:31:07.448Z,98704.14
2018-02-01T12:33:34.911Z,98704.75
2018-02-01T12:36:02.382Z,98697.69
2018-02-01T12:38:29.831Z,98706.92
2018-02-01T12:40:57.284Z,98710.80
2018-02-01T12:43:24.738Z,98700.13
2018-02-01T12:45:52.190Z,98696.67
2018-02-01T12:48:19.663Z,98692.95
2018-02-01T12:50:47.208Z,98690.36
2018-02-01T12:53:14.662Z,98686.89
2018-02-01T12:55:42.144Z,98699.80
2018-02-01T12:58:09.598Z,98705.56
2018-02-01T13:00:37.124Z,98701.52
2018-02-01T13:03:04.567Z,98697.55
2018-02-01T13:05:32.046Z,98700.23
2018-02-01T13:07:59.507Z,98701.98
2018-02-01T13:10:26.981Z,98709.21
2018-02-01T13:12:54.431Z,98713.71
2018-02-01T13:15:21.887Z,98707.97
2018-02-01T13:17:49.335Z,98705.84
2018-02-01T13:20:16.777Z,98711.68
2018-02-01T13:22:44.233Z,98716.19
2018-02-01T13:25:11.668Z,98709.84
2018-02-01T13:27:39.123Z,98703.42
2018-02-01T13:30:06.569Z,98704.75
2018-02-01T13:32:34.029Z,98705.58
2018-02-01T13:35:01.572Z,98706.36
2018-02-01T13:37:29.053Z,98707.06
2018-02-01T13:39:56.488Z,98712.97
2018-02-01T13:42:23.934Z,98709.45
2018-02-01T13:44:51.393Z,98706.05
2018-02-01T13:47:18.836Z,98707.10
2018-02-01T13:49:46.286Z,98708.90
2018-02-01T13:52:13.730Z,98702.32
2018-02-01T13:54:41.197Z,98706.67
2018-02-01T13:57:08.664Z,98715.31
2018-02-01T13:59:36.177Z,98707.17
2018-02-01T14:02:03.618Z,98712.74
2018-02-01T14:04:31.093Z,98718.36
2018-02-01T14:06:58.536Z,98712.60
2018-02-01T14:09:26.000Z,98710.22
2018-02-01T14:11:53.443Z,98693.70
2018-02-01T14:14:20.905Z,98706.51
2018-02-01T14:16:48.353Z,98700.20
2018-02-01T14:19:15.796Z,98699.42
2018-02-01T14:21:44.074Z,98687.24
2018-02-01T14:24:11.513Z,98683.45
2018-02-01T14:26:38.996Z,98690.33
2018-02-01T14:29:06.439Z,98693.82
2018-02-01T14:31:33.957Z,98694.53
2018-02-01T14:34:01.428Z,98694.09
2018-02-01T14:36:28.883Z,98702.65
2018-02-01T14:38:56.326Z,98713.75
2018-02-01T14:41:23.796Z,98704.16
2018-02-01T14:43:51.260Z,98695.95
2018-02-01T14:46:18.706Z,98707.77
2018-02-01T14:48:46.177Z,98691.53
2018-02-01T14:51:13.643Z,98701.15
2018-02-01T14:53:41.097Z,98708.45
2018-02-01T14:56:08.562Z,98704.81
2018-02-01T14:58:36.032Z,98712.70
2018-02-01T15:01:03.464Z,98717.70
2018-02-01T15:03:31.002Z,98717.45
2018-02-01T15:05:58.441Z,98719.05
2018-02-01T15:08:25.938Z,98718.06
2018-02-01T15:10:53.399Z,98710.98
2018-02-01T15:13:20.858Z,98712.98
2018-02-01T15:15:48.309Z,98729.75
2018-02-01T15:18:15.800Z,98728.91
2018-02-01T15:20:43.274Z,98699.75
2018-02-01T15:23:10.718Z,98703.73
2018-02-01T15:25:38.217Z,98701.90
2018-02-01T15:28:05.685Z,98704.22
2018-02-01T15:30:33.138Z,98724.43
2018-02-01T15:33:00.597Z,98736.09
2018-02-01T15:35:28.070Z,98725.67
2018-02-01T15:37:55.509Z,98740.98
2018-02-01T15:40:22.947Z,98747.38
2018-02-01T15:42:50.392Z,98731.16
2018-02-01T15:45:17.846Z,98723.03
2018-02-01T15:47:45.342Z,98739.41
2018-02-01T15:50:13.193Z,98751.36
2018-02-01T15:52:40.649Z,98754.91
2018-02-01T15:55:08.106Z,98753.24
2018-02-01T15:57:35.575Z,98747.70
2018-02-01T16:00:03.118Z,98743.72
2018-02-01T16:02:30.678Z,98742.81
2018-02-01T16:04:58.128Z,98755.77
2018-02-01T16:07:25.626Z,98754.52
2018-02-01T16:09:53.084Z,98740.99
2018-02-01T16:12:20.609Z,98734.09
2018-02-01T16:14:48.075Z,98750.84
2018-02-01T16:17:15.521Z,98759.11
2018-02-01T16:19:43.023Z,98761.39
2018-02-01T16:22:10.464Z,98749.34
2018-02-01T16:24:37.916Z,98753.88
2018-02-01T16:27:05.362Z,98754.67
2018-02-01T16:29:32.844Z,98758.30
2018-02-01T16:32:00.295Z,98770.19
2018-02-01T16:34:27.773Z,98778.30
2018-02-01T16:36:55.278Z,98766.89
2018-02-01T16:39:22.840Z,98776.83
2018-02-01T16:41:50.309Z,98774.87
2018-02-01T16:44:17.803Z,98770.56
2018-02-01T16:46:45.259Z,98763.73
2018-02-01T16:49:12.710Z,98773.33
2018-02-01T16:51:40.205Z,98796.94
2018-02-01T16:54:07.664Z,98807.59
2018-02-01T16:56:35.247Z,98800.14
2018-02-01T16:59:02.691Z,98785.33
2018-02-01T17:01:30.165Z,98781.86
2018-02-01T17:04:00.104Z,98781.86
2018-02-01T17:06:27.630Z,98763.31
2018-02-01T17:08:55.140Z,98752.98
2018-02-01T17:11:22.592Z,98770.51
2018-02-01T17:13:50.049Z,98789.63
2018-02-01T17:16:17.525Z,98806.25
2018-02-01T17:18:45.045Z,98804.67
2018-02-01T17:21:12.545Z,98802.81
2018-02-01T17:23:40.000Z,98803.22
2018-02-01T17:26:07.577Z,98793.25
2018-02-01T17:28:35.057Z,98784.55
2018-02-01T17:31:02.534Z,98795.88
2018-02-01T17:33:29.994Z,98820.95
2018-02-01T17:35:57.441Z,98834.99
2018-02-01T17:38:25.002Z,98836.45
2018-02-01T17:40:52.480Z,98840.41
2018-02-01T17:43:20.073Z,98824.75
2018-02-01T17:45:47.534Z,98825.67
2018-02-01T17:48:15.011Z,98837.11
2018-02-01T17:50:42.454Z,98858.05
2018-02-01T17:53:09.891Z,98869.35
2018-02-01T17:55:37.373Z,98870.16
2018-02-01T17:58:04.857Z,98875.97
2018-02-01T18:00:32.387Z,98874.38
2018-02-01T18:02:59.921Z,98872.28
2018-02-01T18:05:27.411Z,98860.75
2018-02-01T18:07:55.000Z,98860.76
2018-02-01T18:10:22.441Z,98867.11
2018-02-01T18:12:51.033Z,98859.94
2018-02-01T18:15:18.509Z,98854.77
2018-02-01T18:17:46.067Z,98858.63
2018-02-01T18:20:13.516Z,98858.78
2018-02-01T18:22:41.025Z,98869.65
2018-02-01T18:25:08.493Z,98864.48
2018-02-01T18:27:36.028Z,98861.17
2018-02-01T18:30:03.511Z,98862.73
2018-02-01T18:32:31.006Z,98868.31
2018-02-01T18:34:58.574Z,98873.11
2018-02-01T18:37:26.050Z,98876.02
2018-02-01T18:39:53.521Z,98877.75
2018-02-01T18:42:20.964Z,98866.36
2018-02-01T18:44:48.439Z,98871.02
2018-02-01T18:47:15.953Z,98875.52
2018-02-01T18:49:43.443Z,98880.14
2018-02-01T18:52:10.902Z,98886.11
2018-02-01T18:54:38.354Z,98878.52
2018-02-01T18:57:05.913Z,98879.48
2018-02-01T18:59:33.450Z,98869.02
2018-02-01T19:02:00.914Z,98875.52
2018-02-01T19:04:28.398Z,98883.86
2018-02-01T19:06:55.905Z,98887.99
2018-02-01T19:09:23.369Z,98890.25
2018-02-01T19:11:50.952Z,98895.27
2018-02-01T19:14:18.578Z,98896.20
2018-02-01T19:16:46.034Z,98892.48
2018-02-01T19:19:13.533Z,98876.45
2018-02-01T19:21:41.023Z,98882.14
2018-02-01T19:24:08.508Z,98877.09
2018-02-01T19:26:36.033Z,98889.16
2018-02-01T19:29:03.502Z,98889.70
2018-02-01T19:31:31.052Z,98890.05
2018-02-01T19:33:58.533Z,98892.30
2018-02-01T19:36:26.039Z,98900.93
2018-02-01T19:38:53.617Z,98896.81
2018-02-01T19:41:21.072Z,98887.78
2018-02-01T19:43:48.542Z,98888.03
2018-02-01T19:46:16.057Z,98888.64
2018-02-01T19:48:43.964Z,98897.44
2018-02-01T19:51:11.498Z,98892.28
2018-02-01T19:53:39.014Z,98899.00
2018-02-01T19:56:06.637Z,98896.70
2018-02-01T19:58:34.145Z,98889.33
2018-02-01T20:01:01.733Z,98884.47
2018-02-01T20:03:29.234Z,98876.34
2018-02-01T20:05:56.750Z,98881.29
2018-02-01T20:08:24.200Z,98882.30
2018-02-01T20:10:51.671Z,98886.88
2018-02-01T20:13:19.188Z,98888.14
2018-02-01T20:15:46.717Z,98884.94
2018-02-01T20:18:14.249Z,98882.91
2018-02-01T20:20:41.745Z,98879.80
2018-02-01T20:23:09.268Z,98879.16
2018-02-01T20:25:36.718Z,98876.67
2018-02-01T20:28:04.256Z,98875.66
2018-02-01T20:30:31.706Z,98879.28
2018-02-01T20:32:59.210Z,98878.31
2018-02-01T20:35:26.826Z,98880.50
2018-02-01T20:37:54.312Z,98885.63
2018-02-01T20:40:21.954Z,98877.64
2018-02-01T20:42:49.451Z,98875.34
2018-02-01T20:45:16.964Z,98859.33
2018-02-01T20:47:44.451Z,98869.84
2018-02-01T20:50:11.940Z,98870.34
2018-02-01T20:52:39.478Z,98874.00
2018-02-01T20:55:07.039Z,98874.74
2018-02-01T20:57:34.549Z,98879.25
2018-02-01T21:00:02.132Z,98890.62
2018-02-01T21:02:29.592Z,98888.89
2018-02-01T21:04:57.044Z,98886.38
2018-02-01T21:07:24.612Z,98895.69
2018-02-01T21:09:52.105Z,98893.31
2018-02-01T21:12:19.665Z,98883.77
2018-02-01T21:14:47.129Z,98872.00
2018-02-01T21:17:14.624Z,98882.09
2018-02-01T21:19:42.430Z,98872.64
2018-02-01T21:22:09.939Z,98868.82
2018-02-01T21:24:37.449Z,98873.06
2018-02-01T21:27:04.889Z,98873.63
2018-02-01T21:29:32.393Z,98883.05
2018-02-01T21:31:59.887Z,98886.87
2018-02-01T21:34:27.370Z,98895.31
2018-02-01T21:36:54.822Z,98905.20
2018-02-01T21:39:22.336Z,98900.97
2018-02-01T21:41:49.871Z,98903.00
2018-02-01T21:44:17.391Z,98910.01
2018-02-01T21:46:44.916Z,98907.23
2018-02-01T21:49:12.381Z,98911.75
2018-02-01T21:51:40.323Z,98905.67
2018-02-01T21:54:07.880Z,98898.67
2018-02-01T21:56:35.611Z,98906.72
2018-02-01T21:59:03.058Z,98898.90
2018-02-01T22:01:30.545Z,98905.10
2018-02-01T22:03:58.102Z,98898.88
2018-02-01T22:06:25.730Z,98904.94
2018-02-01T22:08:54.103Z,98910.06
2018-02-01T22:11:21.583Z,98911.23
2018-02-01T22:13:49.041Z,98918.63
2018-02-01T22:16:16.484Z,98918.75
2018-02-01T22:18:44.092Z,98921.79
2018-02-01T22:21:11.540Z,98931.28
2018-02-01T22:23:38.990Z,98936.70
2018-02-01T22:26:06.460Z,98939.22
2018-02-01T22:28:33.911Z,98939.91
2018-02-01T22:31:01.468Z,98941.62
2018-02-01T22:33:28.911Z,98940.06
2018-02-01T22:35:56.576Z,98939.51
2018-02-01T22:38:24.104Z,98937.38
2018-02-01T22:40:51.574Z,98941.84
2018-02-01T22:43:19.045Z,98940.66
2018-02-01T22:45:46.506Z,98936.68
2018-02-01T22:48:13.961Z,98936.81
2018-02-01T22:50:41.405Z,98933.90
2018-02-01T22:53:08.938Z,98931.80
2018-02-01T22:55:36.514Z,98940.63
2018-02-01T22:58:03.978Z,98942.58
2018-02-01T23:00:31.415Z,98936.75
2018-02-01T23:02:58.872Z,98937.47
2018-02-01T23:05:26.329Z,98930.84
2018-02-01T23:07:53.842Z,98938.90
2018-02-01T23:10:21.295Z,98934.03
2018-02-01T23:12:48.789Z,98921.54
2018-02-01T23:15:16.268Z,98927.06
2018-02-01T23:17:43.726Z,98918.50
2018-02-01T23:20:11.187Z,98923.44
2018-02-01T23:22:38.657Z,98926.87
2018-02-01T23:25:06.200Z,98916.55
2018-02-01T23:27:33.637Z,98915.69
2018-02-01T23:30:01.088Z,98921.09
2018-02-01T23:32:28.549Z,98922.66
2018-02-01T23:34:56.044Z,98921.02
2018-02-01T23:37:23.481Z,98917.09
2018-02-01T23:39:50.941Z,98918.33
2018-02-01T23:42:18.441Z,98920.64
2018-02-01T23:44:45.918Z,98918.48
2018-02-01T23:47:13.501Z,98922.97
2018-02-01T23:49:40.982Z,98913.57
2018-02-01T23:52:08.453Z,98918.19
2018-02-01T23:54:35.908Z,98916.89
2018-02-01T23:57:03.376Z,98914.90
2018-02-01T23:59:30.842Z,98906.45
